Time;durP1;ratioP1;P1;durP2;ratioP2;P2;SDS_P1;SDS_P2;PMS_P1;PMS_P2;Temp;Humidity;BMP_temperature;BMP_pressure;BME280_temperature;BME280_humidity;BME280_pressure;Samples;Min_cycle;Max_cycle;Signal;HPM_P1;HPM_P2
2024/03/10 00:01:33;;;;;;;;;;;2.60;99.90;;;;;;5034256;28;19913;-55
2024/03/10 00:03:58;;;;;;;;;;;2.60;99.90;;;;;;5041334;28;19912;-58
2024/03/10 00:06:24;;;;;;;;;;;2.50;99.90;;;;;;5042120;28;20359;-54
2024/03/10 00:08:50;;;;;;;;;;;2.50;99.90;;;;;;5035806;28;19917;-53
2024/03/10 00:11:15;;;;;;;;;;;2.50;99.90;;;;;;5031990;28;20365;-52
2024/03/10 00:13:42;;;;;;;;;;;2.40;99.90;;;;;;5045596;28;20001;-52
2024/03/10 00:16:09;;;;;;;;;;;2.40;99.90;;;;;;5038592;28;19905;-56
2024/03/10 00:18:37;;;;;;;;;;;2.30;99.90;;;;;;5029864;28;19905;-52
2024/03/10 00:21:03;;;;;;;;;;;2.30;99.90;;;;;;5030607;28;20373;-55
2024/03/10 00:23:30;;;;;;;;;;;2.30;99.90;;;;;;5033050;28;19917;-57
2024/03/10 00:25:56;;;;;;;;;;;2.20;99.90;;;;;;5040026;28;19924;-56
2024/03/10 00:28:21;;;;;;;;;;;2.20;99.90;;;;;;5036905;28;19909;-55
2024/03/10 00:30:48;;;;;;;;;;;2.10;99.90;;;;;;5030484;28;19966;-54
2024/03/10 00:33:14;;;;;;;;;;;2.10;99.90;;;;;;5030041;28;19963;-57
2024/03/10 00:35:39;;;;;;;;;;;1.90;99.90;;;;;;5030581;28;19909;-52
2024/03/10 00:38:05;;;;;;;;;;;2.00;99.90;;;;;;5028926;28;20512;-52
2024/03/10 00:40:30;;;;;;;;;;;2.00;99.90;;;;;;5030177;28;19920;-55
2024/03/10 00:42:56;;;;;;;;;;;1.90;99.90;;;;;;5030862;28;19939;-52
2024/03/10 00:45:22;;;;;;;;;;;1.90;99.90;;;;;;5029974;28;19921;-56
2024/03/10 00:47:48;;;;;;;;;;;1.90;99.90;;;;;;5029396;28;19913;-55
2024/03/10 00:50:14;;;;;;;;;;;1.90;99.90;;;;;;5030474;28;20262;-55
2024/03/10 00:52:40;;;;;;;;;;;1.80;99.90;;;;;;5037105;28;19916;-52
2024/03/10 00:55:06;;;;;;;;;;;1.90;99.90;;;;;;5038137;28;20289;-56
2024/03/10 00:57:32;;;;;;;;;;;1.90;99.90;;;;;;5037530;28;19988;-55
2024/03/10 00:59:58;;;;;;;;;;;1.90;99.90;;;;;;5029916;28;20008;-55
2024/03/10 01:02:23;;;;;;;;;;;2.00;99.90;;;;;;5029771;28;19917;-51
2024/03/10 01:04:49;;;;;;;;;;;1.90;99.90;;;;;;5028335;28;19904;-52
2024/03/10 01:07:15;;;;;;;;;;;1.90;99.90;;;;;;5031345;28;20008;-52
2024/03/10 01:09:40;;;;;;;;;;;1.90;99.90;;;;;;5036065;28;19917;-52
2024/03/10 01:12:06;;;;;;;;;;;2.00;99.90;;;;;;5036623;28;20380;-56
2024/03/10 01:14:33;;;;;;;;;;;1.80;99.90;;;;;;5036487;28;20027;-52
2024/03/10 01:17:04;;;;;;;;;;;1.70;99.90;;;;;;5036252;28;19999;-52
2024/03/10 01:19:32;;;;;;;;;;;1.70;99.90;;;;;;5035482;28;19916;-53
2024/03/10 01:22:01;;;;;;;;;;;1.60;99.90;;;;;;5036004;28;19916;-52
2024/03/10 01:24:26;;;;;;;;;;;1.60;99.90;;;;;;5036260;28;20022;-53
2024/03/10 01:26:52;;;;;;;;;;;1.50;99.90;;;;;;5036385;28;20448;-52
2024/03/10 01:29:17;;;;;;;;;;;1.50;99.90;;;;;;5035843;28;19982;-52
2024/03/10 01:31:43;;;;;;;;;;;1.50;99.90;;;;;;5036386;28;19940;-52
2024/03/10 01:34:09;;;;;;;;;;;1.50;99.90;;;;;;5036053;28;19909;-56
2024/03/10 01:36:35;;;;;;;;;;;1.50;99.90;;;;;;5036149;28;20717;-54
2024/03/10 01:39:01;;;;;;;;;;;1.40;99.90;;;;;;5035545;28;19962;-53
2024/03/10 01:41:27;;;;;;;;;;;1.30;99.90;;;;;;5036112;28;19917;-52
2024/03/10 01:43:52;;;;;;;;;;;1.40;99.90;;;;;;5036001;28;20012;-52
2024/03/10 01:46:18;;;;;;;;;;;1.40;99.90;;;;;;5036034;28;19920;-53
2024/03/10 01:48:46;;;;;;;;;;;1.40;99.90;;;;;;5035573;28;19975;-52
2024/03/10 01:51:13;;;;;;;;;;;1.40;99.90;;;;;;5036217;28;19909;-51
2024/03/10 01:53:40;;;;;;;;;;;1.50;99.90;;;;;;5036167;28;20475;-52
2024/03/10 01:56:07;;;;;;;;;;;1.40;99.90;;;;;;5036170;28;19928;-53
2024/03/10 01:58:34;;;;;;;;;;;1.40;99.90;;;;;;5043609;28;19913;-56
2024/03/10 02:01:02;;;;;;;;;;;1.50;99.90;;;;;;5036302;28;19920;-53
2024/03/10 02:03:27;;;;;;;;;;;1.50;99.90;;;;;;5035950;28;19925;-55
2024/03/10 02:05:53;;;;;;;;;;;1.50;99.90;;;;;;5036163;28;19988;-56
2024/03/10 02:08:19;;;;;;;;;;;1.50;99.90;;;;;;5035395;28;19919;-58
2024/03/10 02:10:46;;;;;;;;;;;1.40;99.90;;;;;;5036080;28;19967;-56
2024/03/10 02:13:12;;;;;;;;;;;1.30;99.90;;;;;;5035728;28;20357;-56
2024/03/10 02:15:38;;;;;;;;;;;1.30;99.90;;;;;;5035980;28;20381;-55
2024/03/10 02:18:03;;;;;;;;;;;1.30;99.90;;;;;;5043405;28;19996;-55
2024/03/10 02:20:32;;;;;;;;;;;1.20;99.90;;;;;;5039632;28;20289;-57
2024/03/10 02:22:58;;;;;;;;;;;1.20;99.90;;;;;;5032649;28;19913;-57
2024/03/10 02:25:34;;;;;;;;;;;1.20;99.90;;;;;;5034742;28;19905;-58
2024/03/10 02:28:09;;;;;;;;;;;1.10;99.90;;;;;;5045132;28;19905;-56
2024/03/10 02:30:55;;;;;;;;;;;1.10;99.90;;;;;;5040706;28;20011;-57
2024/03/10 02:47:12;;;;;;;;;;;1.00;99.90;;;;;;5040232;28;19949;-53
2024/03/10 02:49:38;;;;;;;;;;;1.00;99.90;;;;;;5031631;28;19909;-55
2024/03/10 02:52:04;;;;;;;;;;;0.90;99.90;;;;;;5032114;28;19915;-54
2024/03/10 02:54:30;;;;;;;;;;;1.00;99.90;;;;;;5031996;28;20030;-55
2024/03/10 02:56:55;;;;;;;;;;;0.90;99.90;;;;;;5046882;28;20376;-57
2024/03/10 02:59:21;;;;;;;;;;;0.90;99.90;;;;;;5041341;28;19984;-56
2024/03/10 03:01:46;;;;;;;;;;;0.90;99.90;;;;;;5037300;28;19913;-57
2024/03/10 03:04:12;;;;;;;;;;;0.90;99.90;;;;;;5034517;28;19913;-55
2024/03/10 03:06:37;;;;;;;;;;;0.90;99.90;;;;;;5031769;28;19920;-57
2024/03/10 03:09:05;;;;;;;;;;;0.90;99.90;;;;;;5031416;28;20018;-55
2024/03/10 03:11:31;;;;;;;;;;;0.90;99.90;;;;;;5031732;28;19913;-56
2024/03/10 03:13:56;;;;;;;;;;;0.90;99.90;;;;;;5038499;28;20291;-56
2024/03/10 03:16:22;;;;;;;;;;;0.90;99.90;;;;;;5041157;28;19909;-57
2024/03/10 03:18:47;;;;;;;;;;;1.00;99.90;;;;;;5036714;28;19955;-54
2024/03/10 03:21:13;;;;;;;;;;;0.90;99.90;;;;;;5042268;28;19920;-51
2024/03/10 03:23:38;;;;;;;;;;;0.90;99.90;;;;;;5018019;28;19912;-55
2024/03/10 03:26:04;;;;;;;;;;;0.90;99.90;;;;;;5035426;28;19909;-52
2024/03/10 03:28:30;;;;;;;;;;;0.90;99.90;;;;;;5030945;28;20376;-52
2024/03/10 03:30:56;;;;;;;;;;;0.90;99.90;;;;;;5039546;28;19920;-55
2024/03/10 03:33:21;;;;;;;;;;;0.90;99.90;;;;;;5039660;28;20374;-53
2024/03/10 03:35:47;;;;;;;;;;;0.80;99.90;;;;;;5036556;28;19948;-52
2024/03/10 03:38:13;;;;;;;;;;;0.80;99.90;;;;;;5049835;28;19990;-51
2024/03/10 03:40:39;;;;;;;;;;;0.70;99.90;;;;;;5043705;28;19913;-54
2024/03/10 03:43:05;;;;;;;;;;;0.60;99.90;;;;;;5035095;28;20051;-52
2024/03/10 03:45:31;;;;;;;;;;;0.60;99.90;;;;;;5030867;28;19942;-55
2024/03/10 03:47:56;;;;;;;;;;;0.60;99.90;;;;;;5039007;28;19943;-53
2024/03/10 03:50:22;;;;;;;;;;;0.50;99.90;;;;;;5047454;28;20188;-56
2024/03/10 03:52:49;;;;;;;;;;;0.50;99.90;;;;;;5039425;28;19913;-55
2024/03/10 03:55:15;;;;;;;;;;;0.60;99.90;;;;;;5030704;28;19992;-56
2024/03/10 03:57:40;;;;;;;;;;;0.60;99.90;;;;;;5034720;28;20020;-52
2024/03/10 04:00:12;;;;;;;;;;;0.60;99.90;;;;;;5042583;28;19908;-53
2024/03/10 04:02:40;;;;;;;;;;;0.60;99.90;;;;;;5042640;28;19916;-56
2024/03/10 04:05:07;;;;;;;;;;;0.50;99.90;;;;;;5034482;28;19917;-56
2024/03/10 04:07:32;;;;;;;;;;;0.50;99.90;;;;;;5032850;28;20368;-51
2024/03/10 04:09:58;;;;;;;;;;;0.60;99.90;;;;;;5017794;28;20090;-51
2024/03/10 04:12:23;;;;;;;;;;;0.60;99.90;;;;;;5032920;28;20349;-54
2024/03/10 04:14:49;;;;;;;;;;;0.60;99.90;;;;;;5036672;28;19920;-54
2024/03/10 04:17:14;;;;;;;;;;;0.60;99.90;;;;;;5030350;28;19963;-55
2024/03/10 04:19:40;;;;;;;;;;;0.50;99.90;;;;;;5030012;28;19909;-54
2024/03/10 04:22:09;;;;;;;;;;;0.50;99.90;;;;;;5030524;28;20012;-53
2024/03/10 04:24:36;;;;;;;;;;;0.40;99.90;;;;;;5030704;28;19909;-53
2024/03/10 04:27:02;;;;;;;;;;;0.50;99.90;;;;;;5030398;28;19928;-55
2024/03/10 04:29:27;;;;;;;;;;;0.50;99.90;;;;;;5030016;28;19913;-53
2024/03/10 04:31:53;;;;;;;;;;;0.50;99.90;;;;;;5030428;28;19915;-54
2024/03/10 04:34:18;;;;;;;;;;;0.50;99.90;;;;;;5030079;28;19928;-52
2024/03/10 04:36:43;;;;;;;;;;;0.60;99.90;;;;;;5030162;28;19917;-56
2024/03/10 04:39:12;;;;;;;;;;;0.50;99.90;;;;;;5029605;28;20282;-60
2024/03/10 04:41:37;;;;;;;;;;;0.50;99.90;;;;;;5029865;28;19928;-57
2024/03/10 04:44:03;;;;;;;;;;;0.60;99.90;;;;;;5019499;28;19920;-52
2024/03/10 04:46:29;;;;;;;;;;;0.50;99.90;;;;;;5046724;28;20385;-53
2024/03/10 04:48:57;;;;;;;;;;;0.50;99.90;;;;;;5037789;28;19923;-53
2024/03/10 04:51:24;;;;;;;;;;;0.50;99.90;;;;;;5031827;28;19982;-52
2024/03/10 04:53:50;;;;;;;;;;;0.60;99.90;;;;;;5036273;28;19981;-56
2024/03/10 04:56:16;;;;;;;;;;;0.50;99.90;;;;;;5030060;28;20327;-55
2024/03/10 04:58:42;;;;;;;;;;;0.50;99.90;;;;;;5029675;28;20052;-58
2024/03/10 05:01:08;;;;;;;;;;;0.60;99.90;;;;;;5030131;28;19927;-57
2024/03/10 05:03:37;;;;;;;;;;;0.60;99.90;;;;;;5029506;28;20308;-54
2024/03/10 05:06:04;;;;;;;;;;;0.70;99.90;;;;;;5037149;28;20288;-56
2024/03/10 05:08:29;;;;;;;;;;;0.70;99.90;;;;;;5032724;28;19970;-52
2024/03/10 05:10:55;;;;;;;;;;;0.70;99.90;;;;;;5043552;28;20418;-55
2024/03/10 05:13:20;;;;;;;;;;;0.80;99.90;;;;;;5047728;28;19913;-58
2024/03/10 05:15:47;;;;;;;;;;;0.80;99.90;;;;;;5036496;28;20436;-56
2024/03/10 05:18:13;;;;;;;;;;;0.80;99.90;;;;;;5028909;28;19955;-56
2024/03/10 05:20:38;;;;;;;;;;;0.80;99.90;;;;;;5033656;28;20038;-59
2024/03/10 05:23:03;;;;;;;;;;;0.80;99.90;;;;;;5040997;28;19943;-58
2024/03/10 05:25:29;;;;;;;;;;;0.80;99.90;;;;;;5030287;28;20050;-56
2024/03/10 05:27:54;;;;;;;;;;;0.80;99.90;;;;;;5029136;28;19923;-59
2024/03/10 05:30:20;;;;;;;;;;;0.80;99.90;;;;;;5029592;28;19948;-57
2024/03/10 05:32:46;;;;;;;;;;;0.80;99.90;;;;;;5029664;28;19936;-56
2024/03/10 05:35:11;;;;;;;;;;;0.80;99.90;;;;;;5037637;28;19984;-57
2024/03/10 05:37:37;;;;;;;;;;;0.70;99.90;;;;;;5045330;28;19944;-57
2024/03/10 05:40:06;;;;;;;;;;;0.80;99.90;;;;;;5037863;28;19942;-54
2024/03/10 05:42:31;;;;;;;;;;;0.80;99.90;;;;;;5037819;28;20411;-55
2024/03/10 05:45:02;;;;;;;;;;;0.80;99.90;;;;;;5029392;28;19925;-54
2024/03/10 05:47:27;;;;;;;;;;;0.90;99.90;;;;;;5029245;28;19983;-56
2024/03/10 05:49:54;;;;;;;;;;;0.80;99.90;;;;;;5029243;28;20336;-59
2024/03/10 05:52:20;;;;;;;;;;;0.80;99.90;;;;;;5029266;28;20441;-56
2024/03/10 05:54:45;;;;;;;;;;;0.80;99.90;;;;;;5032277;28;19943;-56
2024/03/10 05:57:11;;;;;;;;;;;0.80;99.90;;;;;;5033053;28;20676;-54
2024/03/10 05:59:37;;;;;;;;;;;0.80;99.90;;;;;;5032823;28;19922;-57
2024/03/10 06:02:03;;;;;;;;;;;0.80;99.90;;;;;;5033040;28;20470;-56
2024/03/10 06:04:30;;;;;;;;;;;0.70;99.90;;;;;;5032821;28;19943;-57
2024/03/10 06:06:55;;;;;;;;;;;0.70;99.90;;;;;;5032890;28;20270;-56
2024/03/10 06:09:21;;;;;;;;;;;0.70;99.90;;;;;;5031392;28;20430;-57
2024/03/10 06:11:47;;;;;;;;;;;0.70;99.90;;;;;;5032186;28;20426;-53
2024/03/10 06:14:12;;;;;;;;;;;0.80;99.90;;;;;;5032311;28;20034;-56
2024/03/10 06:16:37;;;;;;;;;;;0.70;99.90;;;;;;5032144;28;20341;-56
2024/03/10 06:26:57;;;;;;;;;;;0.90;99.90;;;;;;5032066;28;19941;-55
2024/03/10 06:29:24;;;;;;;;;;;0.90;99.90;;;;;;5031483;28;20027;-55
2024/03/10 06:31:49;;;;;;;;;;;1.00;99.90;;;;;;5031153;28;19927;-53
2024/03/10 06:34:15;;;;;;;;;;;1.00;99.90;;;;;;5031713;28;19950;-53
2024/03/10 06:36:41;;;;;;;;;;;1.00;99.90;;;;;;5031607;28;20002;-54
2024/03/10 06:39:08;;;;;;;;;;;1.10;99.90;;;;;;5031456;28;19924;-56
2024/03/10 06:41:34;;;;;;;;;;;1.20;99.90;;;;;;5031919;28;19975;-52
2024/03/10 06:44:00;;;;;;;;;;;1.20;99.90;;;;;;5031702;28;19943;-54
2024/03/10 06:46:26;;;;;;;;;;;1.30;99.90;;;;;;5031662;28;19943;-54
2024/03/10 06:48:52;;;;;;;;;;;1.30;99.90;;;;;;5031565;28;19944;-53
2024/03/10 06:51:19;;;;;;;;;;;1.40;99.90;;;;;;5031624;28;20006;-55
2024/03/10 06:53:45;;;;;;;;;;;1.40;99.90;;;;;;5031690;28;19942;-56
2024/03/10 06:56:10;;;;;;;;;;;1.50;99.90;;;;;;5031695;28;19935;-57
2024/03/10 06:58:36;;;;;;;;;;;1.60;99.90;;;;;;5030927;28;19920;-58
2024/03/10 07:01:06;;;;;;;;;;;1.70;99.90;;;;;;5031510;28;20034;-52
2024/03/10 07:03:32;;;;;;;;;;;1.70;99.90;;;;;;5031147;28;20035;-55
2024/03/10 07:06:00;;;;;;;;;;;1.70;99.90;;;;;;5030877;28;19925;-57
2024/03/10 07:08:26;;;;;;;;;;;1.70;99.90;;;;;;5038896;28;19920;-56
2024/03/10 07:10:51;;;;;;;;;;;1.90;99.90;;;;;;5031430;28;19909;-54
2024/03/10 07:13:18;;;;;;;;;;;1.90;99.90;;;;;;5031374;28;20315;-53
2024/03/10 07:15:44;;;;;;;;;;;2.00;99.90;;;;;;5035553;28;19920;-58
2024/03/10 07:18:10;;;;;;;;;;;2.10;99.90;;;;;;5042424;28;20349;-56
2024/03/10 07:20:35;;;;;;;;;;;2.10;99.90;;;;;;5039212;28;19935;-57
2024/03/10 07:23:01;;;;;;;;;;;2.20;99.90;;;;;;5037666;28;20364;-54
2024/03/10 07:25:27;;;;;;;;;;;2.20;99.90;;;;;;5042513;28;19912;-51
2024/03/10 07:27:53;;;;;;;;;;;2.30;99.90;;;;;;5036475;28;19963;-56
2024/03/10 07:30:19;;;;;;;;;;;2.30;99.90;;;;;;5030882;28;19917;-56
2024/03/10 07:32:47;;;;;;;;;;;2.50;99.90;;;;;;5030947;28;19913;-56
2024/03/10 07:35:13;;;;;;;;;;;2.70;99.90;;;;;;5038713;28;19913;-55
2024/03/10 07:37:39;;;;;;;;;;;2.80;99.90;;;;;;5042221;28;19913;-55
2024/03/10 07:40:16;;;;;;;;;;;3.00;99.90;;;;;;5043179;28;19985;-55
2024/03/10 07:42:43;;;;;;;;;;;3.20;99.90;;;;;;5035052;28;19947;-53
2024/03/10 07:45:09;;;;;;;;;;;3.70;99.90;;;;;;5042108;28;19913;-55
2024/03/10 07:47:39;;;;;;;;;;;4.20;99.90;;;;;;5038231;28;20337;-57
2024/03/10 07:50:06;;;;;;;;;;;4.80;99.90;;;;;;5030503;28;19955;-52
2024/03/10 07:52:32;;;;;;;;;;;5.50;99.90;;;;;;5041360;28;19917;-57
2024/03/10 07:54:57;;;;;;;;;;;6.20;99.90;;;;;;5043454;28;19929;-59
2024/03/10 07:57:23;;;;;;;;;;;6.50;99.90;;;;;;5031639;28;19998;-61
2024/03/10 07:59:48;;;;;;;;;;;6.80;99.90;;;;;;5036408;28;20332;-60
2024/03/10 08:02:15;;;;;;;;;;;7.20;99.90;;;;;;5030077;28;19924;-60
2024/03/10 08:04:40;;;;;;;;;;;7.40;99.90;;;;;;5030048;28;19917;-59
2024/03/10 08:07:07;;;;;;;;;;;7.70;99.90;;;;;;5038199;28;20293;-61
2024/03/10 08:09:33;;;;;;;;;;;8.40;99.90;;;;;;5040969;28;19908;-61
2024/03/10 08:11:59;;;;;;;;;;;8.90;99.90;;;;;;5035408;28;20325;-61
2024/03/10 08:14:24;;;;;;;;;;;9.30;99.90;;;;;;5029779;28;20429;-59
2024/03/10 08:16:50;;;;;;;;;;;9.70;99.90;;;;;;5029264;28;19909;-60
2024/03/10 08:19:15;;;;;;;;;;;10.20;99.90;;;;;;5046151;28;19939;-59
2024/03/10 08:21:40;;;;;;;;;;;10.80;99.90;;;;;;5041563;28;19920;-60
2024/03/10 08:24:09;;;;;;;;;;;11.30;99.90;;;;;;5042448;28;19913;-61
2024/03/10 08:26:35;;;;;;;;;;;11.50;99.90;;;;;;5033210;28;20015;-60
2024/03/10 08:29:02;;;;;;;;;;;11.50;99.90;;;;;;5014975;28;20021;-59
2024/03/10 08:31:27;;;;;;;;;;;11.40;99.90;;;;;;5042716;28;19955;-59
2024/03/10 08:33:53;;;;;;;;;;;11.20;99.90;;;;;;5036255;28;19917;-58
2024/03/10 08:36:18;;;;;;;;;;;11.00;99.90;;;;;;5029242;28;20288;-57
2024/03/10 08:38:43;;;;;;;;;;;10.90;99.90;;;;;;5036066;28;19913;-57
2024/03/10 08:41:09;;;;;;;;;;;10.70;99.90;;;;;;5029538;28;19996;-60
2024/03/10 08:43:34;;;;;;;;;;;10.60;99.90;;;;;;5045705;28;19950;-59
2024/03/10 08:46:02;;;;;;;;;;;10.50;99.90;;;;;;5036208;28;20004;-59
2024/03/10 08:48:28;;;;;;;;;;;10.40;99.90;;;;;;5040439;28;19912;-60
2024/03/10 08:50:53;;;;;;;;;;;10.50;99.90;;;;;;5043653;28;19931;-59
2024/03/10 08:53:19;;;;;;;;;;;10.40;99.90;;;;;;5029173;28;19977;-59
2024/03/10 08:55:45;;;;;;;;;;;10.40;99.90;;;;;;5029422;28;20004;-59
2024/03/10 08:58:12;;;;;;;;;;;10.50;99.90;;;;;;5028774;28;19916;-58
2024/03/10 09:00:37;;;;;;;;;;;10.70;99.90;;;;;;5029065;28;20285;-59
2024/03/10 09:03:04;;;;;;;;;;;10.80;99.90;;;;;;5044045;28;19912;-59
2024/03/10 09:05:29;;;;;;;;;;;10.80;99.90;;;;;;5028998;28;19913;-58
2024/03/10 09:07:55;;;;;;;;;;;11.00;99.90;;;;;;5036839;28;20304;-60
2024/03/10 09:10:23;;;;;;;;;;;11.20;99.90;;;;;;5029000;28;20008;-59
2024/03/10 09:12:50;;;;;;;;;;;11.50;99.90;;;;;;5029578;28;19920;-59
2024/03/10 09:15:16;;;;;;;;;;;11.90;99.90;;;;;;5045411;28;20253;-59
2024/03/10 09:17:41;;;;;;;;;;;12.30;99.90;;;;;;5036910;28;19909;-60
2024/03/10 09:20:12;;;;;;;;;;;12.70;99.90;;;;;;5028814;28;20348;-57
2024/03/10 09:22:39;;;;;;;;;;;13.30;99.90;;;;;;5041186;28;19938;-59
2024/03/10 09:25:06;;;;;;;;;;;13.90;99.90;;;;;;5033720;28;19936;-60
2024/03/10 09:27:32;;;;;;;;;;;14.30;99.90;;;;;;5028433;28;19913;-61
2024/03/10 09:29:58;;;;;;;;;;;14.70;99.90;;;;;;5038524;28;19916;-59
2024/03/10 09:32:26;;;;;;;;;;;14.90;99.90;;;;;;5034906;28;19916;-59
2024/03/10 09:34:53;;;;;;;;;;;15.10;99.90;;;;;;5032720;28;19924;-59
2024/03/10 09:37:19;;;;;;;;;;;15.20;99.90;;;;;;5049440;28;19952;-59
2024/03/10 09:39:44;;;;;;;;;;;15.30;99.90;;;;;;5029726;28;19944;-59
2024/03/10 09:42:14;;;;;;;;;;;15.60;99.90;;;;;;5040614;28;20339;-59
2024/03/10 09:44:41;;;;;;;;;;;15.70;99.90;;;;;;5036435;28;19918;-59
2024/03/10 09:47:07;;;;;;;;;;;15.70;99.90;;;;;;5036848;28;19909;-60
2024/03/10 09:49:32;;;;;;;;;;;16.00;99.90;;;;;;5034900;28;19928;-60
2024/03/10 09:51:58;;;;;;;;;;;16.10;99.90;;;;;;5046448;28;20373;-59
2024/03/10 09:54:23;;;;;;;;;;;16.20;99.90;;;;;;5033924;28;19967;-59
2024/03/10 09:56:50;;;;;;;;;;;16.10;99.90;;;;;;5044235;28;20374;-59
2024/03/10 09:59:19;;;;;;;;;;;15.80;99.90;;;;;;5034909;28;19955;-60
2024/03/10 10:01:46;;;;;;;;;;;15.70;99.90;;;;;;5032400;28;19913;-56
2024/03/10 10:04:13;;;;;;;;;;;15.60;99.90;;;;;;5040592;28;19989;-59
2024/03/10 10:06:44;;;;;;;;;;;15.70;99.90;;;;;;5044041;28;19909;-58
2024/03/10 10:09:13;;;;;;;;;;;15.60;99.90;;;;;;5035875;28;19940;-60
2024/03/10 10:11:38;;;;;;;;;;;15.30;99.90;;;;;;5043924;28;19909;-60
2024/03/10 10:14:05;;;;;;;;;;;15.20;99.90;;;;;;5036998;28;20004;-61
2024/03/10 10:16:31;;;;;;;;;;;14.90;99.90;;;;;;5040189;28;19912;-58
2024/03/10 10:18:56;;;;;;;;;;;14.60;99.90;;;;;;5031682;28;19909;-59
2024/03/10 10:21:24;;;;;;;;;;;14.30;99.90;;;;;;5041415;28;19913;-57
2024/03/10 10:23:51;;;;;;;;;;;14.20;99.90;;;;;;5047169;28;19908;-59
2024/03/10 10:26:17;;;;;;;;;;;13.80;99.90;;;;;;5031785;28;19912;-59
2024/03/10 10:28:42;;;;;;;;;;;13.50;99.90;;;;;;5031637;28;20300;-58
2024/03/10 10:31:09;;;;;;;;;;;13.30;99.90;;;;;;5031784;28;19967;-58
2024/03/10 10:33:34;;;;;;;;;;;13.50;99.90;;;;;;5042871;28;19957;-60
2024/03/10 10:36:05;;;;;;;;;;;13.60;99.90;;;;;;5045330;28;19917;-59
2024/03/10 10:38:40;;;;;;;;;;;13.50;99.90;;;;;;5034691;28;20274;-58
2024/03/10 10:41:07;;;;;;;;;;;13.40;99.90;;;;;;5035127;28;19946;-58
2024/03/10 10:43:38;;;;;;;;;;;13.50;99.90;;;;;;5031385;28;20301;-58
2024/03/10 10:46:10;;;;;;;;;;;13.60;99.90;;;;;;5040030;28;20351;-59
2024/03/10 10:48:36;;;;;;;;;;;13.70;99.90;;;;;;5033985;28;19922;-59
2024/03/10 10:51:06;;;;;;;;;;;13.50;99.90;;;;;;5044912;28;19950;-59
2024/03/10 10:53:32;;;;;;;;;;;13.40;99.90;;;;;;5042311;28;19992;-60
2024/03/10 10:55:58;;;;;;;;;;;13.40;99.90;;;;;;5051542;28;19908;-58
2024/03/10 10:58:27;;;;;;;;;;;13.50;99.90;;;;;;5034341;28;19921;-59
2024/03/10 11:00:59;;;;;;;;;;;13.60;99.90;;;;;;5038082;28;19919;-59
2024/03/10 11:03:25;;;;;;;;;;;13.60;99.90;;;;;;5031034;28;19916;-59
2024/03/10 11:06:03;;;;;;;;;;;13.60;99.90;;;;;;5031649;28;19909;-59
2024/03/10 11:08:31;;;;;;;;;;;13.50;99.90;;;;;;5040691;28;20313;-59
2024/03/10 11:10:57;;;;;;;;;;;13.50;99.90;;;;;;5037070;28;19909;-59
2024/03/10 11:13:23;;;;;;;;;;;13.50;99.90;;;;;;5032217;28;20360;-57
2024/03/10 11:16:04;;;;;;;;;;;13.50;99.90;;;;;;5042772;28;19948;-57
2024/03/10 11:18:30;;;;;;;;;;;13.50;99.90;;;;;;5039834;28;19970;-56
2024/03/10 11:20:57;;;;;;;;;;;13.60;99.90;;;;;;5039177;28;19995;-60
2024/03/10 11:23:36;;;;;;;;;;;13.60;99.90;;;;;;5030715;28;19913;-58
2024/03/10 11:26:05;;;;;;;;;;;13.70;99.90;;;;;;5031030;28;19909;-59
2024/03/10 11:28:49;;;;;;;;;;;13.90;99.90;;;;;;5030239;28;20276;-61
2024/03/10 11:31:20;;;;;;;;;;;14.00;99.90;;;;;;5030645;28;19905;-61
2024/03/10 11:33:47;;;;;;;;;;;14.00;99.90;;;;;;5030684;28;19905;-60
2024/03/10 11:36:12;;;;;;;;;;;13.70;99.90;;;;;;5038887;28;20379;-60
2024/03/10 11:38:38;;;;;;;;;;;13.70;99.90;;;;;;5045731;28;19909;-60
2024/03/10 11:41:07;;;;;;;;;;;13.80;99.90;;;;;;5030564;28;20008;-60
2024/03/10 11:43:35;;;;;;;;;;;13.90;99.90;;;;;;5030238;28;19917;-60
2024/03/10 11:46:20;;;;;;;;;;;14.00;99.90;;;;;;5030681;28;19913;-59
2024/03/10 11:48:47;;;;;;;;;;;13.90;99.90;;;;;;5029976;28;20282;-59
2024/03/10 11:51:13;;;;;;;;;;;13.90;99.90;;;;;;5030093;28;19909;-60
2024/03/10 11:53:38;;;;;;;;;;;14.00;99.90;;;;;;5041808;28;20403;-60
2024/03/10 11:56:05;;;;;;;;;;;14.20;99.90;;;;;;5043419;28;19909;-61
2024/03/10 11:58:33;;;;;;;;;;;14.40;99.90;;;;;;5029488;28;19920;-60
2024/03/10 12:01:05;;;;;;;;;;;14.60;99.90;;;;;;5036362;28;19908;-60
2024/03/10 12:03:34;;;;;;;;;;;14.70;99.90;;;;;;5039567;28;20456;-59
2024/03/10 12:06:00;;;;;;;;;;;14.70;99.90;;;;;;5036445;28;19913;-60
2024/03/10 12:08:29;;;;;;;;;;;14.70;99.90;;;;;;5033169;28;20004;-60
2024/03/10 12:10:58;;;;;;;;;;;14.50;99.90;;;;;;5036078;28;19909;-59
2024/03/10 12:13:23;;;;;;;;;;;14.70;99.90;;;;;;5030003;28;19909;-61
2024/03/10 12:15:50;;;;;;;;;;;14.80;99.90;;;;;;5029826;28;19962;-61
2024/03/10 12:18:16;;;;;;;;;;;14.90;99.90;;;;;;5037551;28;19909;-60
2024/03/10 12:20:44;;;;;;;;;;;14.90;99.90;;;;;;5030078;28;19916;-60
2024/03/10 12:23:11;;;;;;;;;;;15.00;99.90;;;;;;5029901;28;20003;-61
2024/03/10 12:25:41;;;;;;;;;;;15.00;99.90;;;;;;5029436;28;19932;-61
2024/03/10 12:28:09;;;;;;;;;;;15.00;99.90;;;;;;5036500;28;20073;-61
2024/03/10 12:30:35;;;;;;;;;;;14.90;99.90;;;;;;5030263;28;20689;-60
2024/03/10 12:33:04;;;;;;;;;;;14.70;99.90;;;;;;5029683;28;20063;-60
2024/03/10 12:35:29;;;;;;;;;;;14.70;99.90;;;;;;5037585;28;19916;-59
2024/03/10 12:37:55;;;;;;;;;;;14.60;99.90;;;;;;5030188;28;19913;-59
2024/03/10 12:40:21;;;;;;;;;;;14.40;99.90;;;;;;5029523;28;20285;-59
2024/03/10 12:42:47;;;;;;;;;;;14.30;99.90;;;;;;5037734;28;19921;-59
2024/03/10 12:45:16;;;;;;;;;;;14.20;99.90;;;;;;5037473;28;20387;-61
2024/03/10 12:47:45;;;;;;;;;;;14.30;99.90;;;;;;5040622;28;20313;-59
2024/03/10 12:50:11;;;;;;;;;;;14.30;99.90;;;;;;5049035;28;19915;-61
2024/03/10 12:52:36;;;;;;;;;;;14.30;99.90;;;;;;5037957;28;19999;-60
2024/03/10 12:55:03;;;;;;;;;;;14.30;99.90;;;;;;5029125;28;19913;-60
2024/03/10 12:57:28;;;;;;;;;;;14.10;99.90;;;;;;5029242;28;19909;-61
2024/03/10 12:59:54;;;;;;;;;;;14.20;99.90;;;;;;5031427;28;19944;-61
2024/03/10 13:02:19;;;;;;;;;;;14.40;99.90;;;;;;5040293;28;19948;-61
2024/03/10 13:04:48;;;;;;;;;;;14.40;99.90;;;;;;5036717;28;19913;-60
2024/03/10 13:07:14;;;;;;;;;;;14.50;99.90;;;;;;5037082;28;20285;-60
2024/03/10 13:09:39;;;;;;;;;;;14.60;99.90;;;;;;5028317;28;20412;-59
2024/03/10 13:12:06;;;;;;;;;;;14.60;99.90;;;;;;5036016;28;20089;-60
2024/03/10 13:14:32;;;;;;;;;;;14.70;99.90;;;;;;5029949;28;20008;-61
2024/03/10 13:16:58;;;;;;;;;;;14.80;99.90;;;;;;5029184;28;19943;-61
2024/03/10 13:19:23;;;;;;;;;;;15.00;99.90;;;;;;5028472;28;19953;-58
2024/03/10 13:21:49;;;;;;;;;;;15.20;99.90;;;;;;5033316;28;20411;-61
2024/03/10 13:24:15;;;;;;;;;;;15.30;99.90;;;;;;5032657;28;19916;-60
2024/03/10 13:26:42;;;;;;;;;;;15.50;99.90;;;;;;5045260;28;19959;-60
2024/03/10 13:29:09;;;;;;;;;;;15.50;99.90;;;;;;5028627;28;20362;-60
2024/03/10 13:31:35;;;;;;;;;;;15.40;99.90;;;;;;5028829;28;19928;-59
2024/03/10 13:34:01;;;;;;;;;;;15.40;99.90;;;;;;5028915;28;20365;-60
2024/03/10 13:36:27;;;;;;;;;;;15.40;99.90;;;;;;5030058;28;19995;-59
2024/03/10 13:38:53;;;;;;;;;;;15.00;99.90;;;;;;5042192;28;20318;-59
2024/03/10 13:41:21;;;;;;;;;;;14.80;99.90;;;;;;5029084;28;19917;-61
2024/03/10 13:43:46;;;;;;;;;;;14.60;99.90;;;;;;5028950;28;19936;-58
2024/03/10 13:46:12;;;;;;;;;;;14.50;99.90;;;;;;5028921;28;19919;-58
2024/03/10 13:48:38;;;;;;;;;;;14.40;99.90;;;;;;5036491;28;19917;-59
2024/03/10 13:51:04;;;;;;;;;;;14.30;99.90;;;;;;5029067;28;19909;-59
2024/03/10 13:53:29;;;;;;;;;;;14.30;99.90;;;;;;5038777;28;19912;-59
2024/03/10 13:55:55;;;;;;;;;;;14.30;99.90;;;;;;5040328;28;19959;-59
2024/03/10 13:58:21;;;;;;;;;;;14.30;99.90;;;;;;5039184;28;19908;-60
2024/03/10 14:00:47;;;;;;;;;;;14.50;99.90;;;;;;5028581;28;19913;-60
2024/03/10 14:03:14;;;;;;;;;;;14.50;99.90;;;;;;5036428;28;20012;-60
2024/03/10 14:05:39;;;;;;;;;;;14.50;99.90;;;;;;5036797;28;20389;-61
2024/03/10 14:08:05;;;;;;;;;;;14.50;99.90;;;;;;5027772;28;19909;-56
2024/03/10 14:10:30;;;;;;;;;;;14.60;99.90;;;;;;5028514;28;20346;-53
2024/03/10 14:12:56;;;;;;;;;;;14.70;99.90;;;;;;5034270;28;19916;-54
2024/03/10 14:15:21;;;;;;;;;;;14.70;99.90;;;;;;5050421;28;19909;-52
2024/03/10 14:17:47;;;;;;;;;;;14.60;99.90;;;;;;5043334;28;19913;-55
2024/03/10 14:20:14;;;;;;;;;;;14.50;99.90;;;;;;5036347;28;19944;-56
2024/03/10 14:22:48;;;;;;;;;;;14.50;99.90;;;;;;5035000;28;19999;-52
2024/03/10 14:25:14;;;;;;;;;;;14.40;99.90;;;;;;5044163;28;20384;-53
2024/03/10 14:27:49;;;;;;;;;;;14.30;99.90;;;;;;5031277;28;19913;-53
2024/03/10 14:30:17;;;;;;;;;;;14.30;99.90;;;;;;5031941;28;19916;-57
2024/03/10 14:32:43;;;;;;;;;;;14.30;99.90;;;;;;5035545;28;20026;-53
2024/03/10 14:35:09;;;;;;;;;;;14.30;99.90;;;;;;5043330;28;19995;-53
2024/03/10 14:37:38;;;;;;;;;;;14.30;99.90;;;;;;5033594;28;19913;-53
2024/03/10 14:40:06;;;;;;;;;;;14.30;99.90;;;;;;5031921;28;19909;-54
2024/03/10 14:42:32;;;;;;;;;;;14.20;99.90;;;;;;5031936;28;19920;-56